Time;durP1;ratioP1;P1;durP2;ratioP2;P2;SDS_P1;SDS_P2;PMS_P1;PMS_P2;Temp;Humidity;BMP_temperature;BMP_pressure;BME280_temperature;BME280_humidity;BME280_pressure;Samples;Min_cycle;Max_cycle;Signal;HPM_P1;HPM_P2
2023/12/08 00:00:09;;;;;;;17.20;12.65;;;;;;;;;;341142;29;844;-84
2023/12/08 00:00:23;;;;;;;16.42;12.07;;;;;;;;;;341175;29;938;-84
2023/12/08 00:00:34;;;;;;;15.27;11.98;;;;;;;;;;340020;29;1391;-85
2023/12/08 00:00:46;;;;;;;15.57;12.13;;;;;;;;;;340164;29;1087;-84
2023/12/08 00:00:56;;;;;;;15.77;12.50;;;;;;;;;;341291;29;1396;-84
2023/12/08 00:01:07;;;;;;;15.57;12.23;;;;;;;;;;341154;29;876;-84
2023/12/08 00:01:17;;;;;;;15.13;12.10;;;;;;;;;;341633;29;836;-85
2023/12/08 00:01:28;;;;;;;15.05;11.95;;;;;;;;;;344222;28;875;-85
2023/12/08 00:01:39;;;;;;;14.23;11.80;;;;;;;;;;340028;29;955;-84
2023/12/08 00:01:49;;;;;;;14.48;11.77;;;;;;;;;;338857;29;1219;-85
2023/12/08 00:02:00;;;;;;;14.13;11.47;;;;;;;;;;337439;29;1486;-85
2023/12/08 00:02:11;;;;;;;14.13;11.50;;;;;;;;;;337521;29;857;-85
2023/12/08 00:02:23;;;;;;;13.83;11.77;;;;;;;;;;338833;29;1564;-85
2023/12/08 00:02:33;;;;;;;15.45;12.02;;;;;;;;;;338682;29;1434;-85
2023/12/08 00:02:44;;;;;;;16.15;12.07;;;;;;;;;;342659;28;1401;-85
2023/12/08 00:02:55;;;;;;;15.88;12.07;;;;;;;;;;341531;28;1445;-85
2023/12/08 00:03:09;;;;;;;16.75;12.38;;;;;;;;;;343695;28;1488;-84
2023/12/08 00:03:21;;;;;;;16.33;12.50;;;;;;;;;;342870;28;877;-85
2023/12/08 00:03:31;;;;;;;15.55;12.00;;;;;;;;;;341508;29;923;-85
2023/12/08 00:03:42;;;;;;;14.80;12.25;;;;;;;;;;342807;28;919;-85
2023/12/08 00:03:52;;;;;;;15.17;12.63;;;;;;;;;;342744;28;1984;-85
2023/12/08 00:04:03;;;;;;;14.85;12.70;;;;;;;;;;341225;29;883;-85
2023/12/08 00:04:14;;;;;;;15.80;12.60;;;;;;;;;;341332;29;1318;-84
2023/12/08 00:04:24;;;;;;;15.48;12.20;;;;;;;;;;341369;29;1295;-85
2023/12/08 00:04:41;;;;;;;15.87;12.03;;;;;;;;;;342640;28;1354;-85
2023/12/08 00:04:54;;;;;;;14.65;11.80;;;;;;;;;;342847;28;848;-85
2023/12/08 00:05:05;;;;;;;13.88;11.82;;;;;;;;;;341103;29;1387;-85
2023/12/08 00:05:15;;;;;;;14.07;12.10;;;;;;;;;;344113;28;1409;-84
2023/12/08 00:05:27;;;;;;;15.30;12.60;;;;;;;;;;341343;29;1324;-85
2023/12/08 00:05:38;;;;;;;16.50;12.80;;;;;;;;;;341237;29;1407;-85
2023/12/08 00:05:49;;;;;;;16.92;12.77;;;;;;;;;;341465;29;1410;-85
2023/12/08 00:06:00;;;;;;;16.42;12.75;;;;;;;;;;341519;29;797;-85
2023/12/08 00:06:10;;;;;;;15.82;12.60;;;;;;;;;;341121;29;1281;-85
2023/12/08 00:06:22;;;;;;;15.13;12.52;;;;;;;;;;341410;28;1423;-85
2023/12/08 00:06:33;;;;;;;15.73;12.60;;;;;;;;;;341392;29;1014;-85
2023/12/08 00:06:44;;;;;;;15.77;12.57;;;;;;;;;;340129;29;1488;-85
2023/12/08 00:07:00;;;;;;;15.60;12.20;;;;;;;;;;338816;29;1303;-85
2023/12/08 00:07:11;;;;;;;15.02;11.90;;;;;;;;;;338368;29;1297;-85
2023/12/08 00:07:22;;;;;;;15.30;12.07;;;;;;;;;;341427;29;1375;-84
2023/12/08 00:07:34;;;;;;;15.77;11.90;;;;;;;;;;341421;29;824;-85
2023/12/08 00:07:44;;;;;;;15.55;11.95;;;;;;;;;;339506;29;1275;-85
2023/12/08 00:07:56;;;;;;;14.95;12.15;;;;;;;;;;340050;29;809;-86
2023/12/08 00:08:07;;;;;;;14.55;12.18;;;;;;;;;;338544;29;837;-84
2023/12/08 00:08:18;;;;;;;14.37;12.17;;;;;;;;;;341442;29;1398;-85
2023/12/08 00:08:28;;;;;;;14.90;12.30;;;;;;;;;;341358;28;1252;-85
2023/12/08 00:08:39;;;;;;;15.57;12.47;;;;;;;;;;342614;28;1205;-85
2023/12/08 00:08:52;;;;;;;15.93;13.02;;;;;;;;;;342847;28;955;-85
2023/12/08 00:09:03;;;;;;;16.20;13.15;;;;;;;;;;342901;28;934;-85
2023/12/08 00:09:14;;;;;;;16.73;13.15;;;;;;;;;;342616;28;1294;-85
2023/12/08 00:09:26;;;;;;;16.55;12.80;;;;;;;;;;341564;29;903;-85
2023/12/08 00:09:37;;;;;;;15.40;12.35;;;;;;;;;;338651;29;1237;-85
2023/12/08 00:09:49;;;;;;;14.32;11.52;;;;;;;;;;338919;29;931;-85
2023/12/08 00:10:00;;;;;;;14.35;11.52;;;;;;;;;;337437;29;888;-85
2023/12/08 00:10:11;;;;;;;14.98;11.60;;;;;;;;;;338807;29;1268;-84
2023/12/08 00:10:22;;;;;;;17.03;12.23;;;;;;;;;;341491;29;1218;-85
2023/12/08 00:10:33;;;;;;;17.35;12.50;;;;;;;;;;341458;29;942;-85
2023/12/08 00:10:44;;;;;;;17.08;12.63;;;;;;;;;;339993;29;1229;-84
2023/12/08 00:10:55;;;;;;;16.67;12.93;;;;;;;;;;341513;29;844;-85
2023/12/08 00:11:06;;;;;;;16.43;12.90;;;;;;;;;;339800;29;1397;-84
2023/12/08 00:11:20;;;;;;;15.85;12.45;;;;;;;;;;340161;29;861;-85
2023/12/08 00:11:31;;;;;;;15.27;11.85;;;;;;;;;;341269;28;1433;-85
2023/12/08 00:11:42;;;;;;;16.38;12.23;;;;;;;;;;341544;29;1061;-85
2023/12/08 00:11:53;;;;;;;17.58;12.50;;;;;;;;;;338849;29;1596;-85
2023/12/08 00:12:04;;;;;;;17.67;12.85;;;;;;;;;;341425;28;1302;-85
2023/12/08 00:12:15;;;;;;;16.75;13.15;;;;;;;;;;341029;29;1572;-85
2023/12/08 00:12:27;;;;;;;17.08;13.63;;;;;;;;;;341348;29;1451;-85
2023/12/08 00:12:38;;;;;;;16.80;13.62;;;;;;;;;;341055;29;1276;-85
2023/12/08 00:12:48;;;;;;;16.52;13.07;;;;;;;;;;341155;28;1068;-85
2023/12/08 00:13:00;;;;;;;16.90;13.50;;;;;;;;;;341514;28;1369;-85
2023/12/08 00:13:11;;;;;;;17.40;13.60;;;;;;;;;;342342;28;1357;-85
2023/12/08 00:13:22;;;;;;;17.70;13.50;;;;;;;;;;342813;28;954;-85
2023/12/08 00:13:33;;;;;;;16.95;12.75;;;;;;;;;;342730;28;954;-85
2023/12/08 00:13:44;;;;;;;17.13;13.35;;;;;;;;;;344129;28;836;-84
2023/12/08 00:13:55;;;;;;;17.67;13.53;;;;;;;;;;344177;28;804;-84
2023/12/08 00:14:06;;;;;;;16.98;13.32;;;;;;;;;;342596;28;1342;-84
2023/12/08 00:14:18;;;;;;;16.33;12.85;;;;;;;;;;344193;28;922;-85
2023/12/08 00:14:29;;;;;;;16.48;12.63;;;;;;;;;;344045;28;946;-85
2023/12/08 00:14:40;;;;;;;17.17;12.93;;;;;;;;;;341420;29;982;-85
2023/12/08 00:14:51;;;;;;;18.80;13.57;;;;;;;;;;343983;28;1448;-85
2023/12/08 00:15:05;;;;;;;17.24;13.20;;;;;;;;;;344067;28;902;-85
2023/12/08 00:15:16;;;;;;;17.40;13.27;;;;;;;;;;341119;29;836;-85
2023/12/08 00:15:27;;;;;;;17.15;13.20;;;;;;;;;;340009;29;1265;-85
2023/12/08 00:15:37;;;;;;;17.33;12.67;;;;;;;;;;337413;29;1253;-85
2023/12/08 00:15:47;;;;;;;17.08;12.63;;;;;;;;;;340106;29;1471;-85
2023/12/08 00:15:59;;;;;;;17.30;12.80;;;;;;;;;;340254;29;855;-85
2023/12/08 00:16:09;;;;;;;16.40;12.70;;;;;;;;;;339764;29;1677;-85
2023/12/08 00:16:22;;;;;;;16.38;12.73;;;;;;;;;;341430;29;1528;-85
2023/12/08 00:16:33;;;;;;;18.02;13.52;;;;;;;;;;341282;29;974;-85
2023/12/08 00:16:44;;;;;;;18.42;14.05;;;;;;;;;;340177;29;915;-85
2023/12/08 00:16:57;;;;;;;18.10;14.10;;;;;;;;;;340208;29;872;-85
2023/12/08 00:17:08;;;;;;;15.48;13.10;;;;;;;;;;342358;28;1498;-85
2023/12/08 00:17:19;;;;;;;14.04;12.50;;;;;;;;;;341413;29;1288;-85
2023/12/08 00:17:31;;;;;;;14.05;11.98;;;;;;;;;;340111;29;836;-85
2023/12/08 00:17:42;;;;;;;16.08;12.63;;;;;;;;;;341161;29;1291;-85
2023/12/08 00:17:53;;;;;;;17.90;13.30;;;;;;;;;;339976;29;1296;-86
2023/12/08 00:18:03;;;;;;;17.00;13.57;;;;;;;;;;338724;29;1359;-86
2023/12/08 00:18:14;;;;;;;16.90;13.50;;;;;;;;;;339843;29;1414;-85
2023/12/08 00:18:25;;;;;;;17.10;13.57;;;;;;;;;;342822;28;848;-85
2023/12/08 00:18:36;;;;;;;16.77;13.50;;;;;;;;;;343925;28;1378;-84
2023/12/08 00:18:48;;;;;;;16.50;13.25;;;;;;;;;;344051;28;1254;-85
2023/12/08 00:18:59;;;;;;;16.33;12.95;;;;;;;;;;342803;28;1426;-85
2023/12/08 00:19:10;;;;;;;16.38;12.95;;;;;;;;;;342539;28;1389;-85
2023/12/08 00:19:21;;;;;;;16.45;13.57;;;;;;;;;;342759;28;863;-85
2023/12/08 00:19:32;;;;;;;16.05;13.32;;;;;;;;;;341294;29;1414;-85
2023/12/08 00:19:43;;;;;;;16.55;13.48;;;;;;;;;;340169;29;1386;-85
2023/12/08 00:19:56;;;;;;;16.33;12.97;;;;;;;;;;338823;29;1175;-85
2023/12/08 00:20:07;;;;;;;16.35;13.10;;;;;;;;;;340124;29;938;-85
2023/12/08 00:20:18;;;;;;;15.02;12.60;;;;;;;;;;341057;29;1287;-85
2023/12/08 00:20:28;;;;;;;16.33;12.50;;;;;;;;;;341145;29;1371;-85
2023/12/08 00:20:39;;;;;;;15.13;11.87;;;;;;;;;;341275;29;1237;-84
2023/12/08 00:20:49;;;;;;;15.80;12.40;;;;;;;;;;338883;29;904;-85
2023/12/08 00:21:00;;;;;;;15.37;12.80;;;;;;;;;;338910;29;900;-85
2023/12/08 00:21:11;;;;;;;16.55;13.05;;;;;;;;;;338382;29;1418;-85
2023/12/08 00:21:25;;;;;;;16.73;13.03;;;;;;;;;;339909;29;1214;-85
2023/12/08 00:21:35;;;;;;;17.40;13.25;;;;;;;;;;340004;29;859;-85
2023/12/08 00:21:46;;;;;;;15.63;12.90;;;;;;;;;;340689;29;844;-85
2023/12/08 00:21:57;;;;;;;15.73;12.67;;;;;;;;;;344072;28;1402;-85
2023/12/08 00:22:08;;;;;;;16.45;12.80;;;;;;;;;;342686;28;1491;-84
2023/12/08 00:22:21;;;;;;;16.63;13.00;;;;;;;;;;339795;29;1241;-85
2023/12/08 00:22:31;;;;;;;16.90;13.27;;;;;;;;;;339573;29;1276;-85
2023/12/08 00:22:42;;;;;;;18.00;13.38;;;;;;;;;;339924;29;1114;-85
2023/12/08 00:22:53;;;;;;;18.48;13.55;;;;;;;;;;340198;29;799;-85
2023/12/08 00:23:03;;;;;;;18.70;13.60;;;;;;;;;;338738;29;1292;-85
2023/12/08 00:23:14;;;;;;;16.42;13.43;;;;;;;;;;338477;29;1328;-84
2023/12/08 00:23:25;;;;;;;16.30;13.05;;;;;;;;;;338690;29;880;-85
2023/12/08 00:23:36;;;;;;;16.13;13.35;;;;;;;;;;338740;29;908;-85
2023/12/08 00:23:46;;;;;;;16.63;13.30;;;;;;;;;;341514;29;1980;-85
2023/12/08 00:23:57;;;;;;;16.60;13.27;;;;;;;;;;342740;28;1415;-85
2023/12/08 00:24:09;;;;;;;17.20;13.50;;;;;;;;;;341423;29;1505;-85
2023/12/08 00:24:20;;;;;;;17.15;13.50;;;;;;;;;;341233;29;847;-85
2023/12/08 00:24:30;;;;;;;18.00;13.65;;;;;;;;;;339932;29;1387;-85
2023/12/08 00:24:41;;;;;;;17.07;13.33;;;;;;;;;;338758;29;1522;-85
2023/12/08 00:24:51;;;;;;;16.42;13.07;;;;;;;;;;339969;29;1383;-85
2023/12/08 00:25:02;;;;;;;15.80;12.93;;;;;;;;;;340064;29;1414;-85
2023/12/08 00:25:13;;;;;;;16.95;13.65;;;;;;;;;;338384;29;1494;-85
2023/12/08 00:25:24;;;;;;;19.73;14.23;;;;;;;;;;341246;29;1391;-85
2023/12/08 00:25:34;;;;;;;20.67;13.97;;;;;;;;;;340083;29;841;-85
2023/12/08 00:25:44;;;;;;;20.02;13.57;;;;;;;;;;340102;29;789;-85
2023/12/08 00:25:55;;;;;;;19.37;13.50;;;;;;;;;;340090;29;1202;-85
2023/12/08 00:26:06;;;;;;;18.38;13.43;;;;;;;;;;338781;29;913;-84
2023/12/08 00:26:16;;;;;;;19.23;13.37;;;;;;;;;;339972;29;864;-85
2023/12/08 00:26:28;;;;;;;17.48;13.73;;;;;;;;;;342664;28;1245;-85
2023/12/08 00:26:39;;;;;;;18.55;14.52;;;;;;;;;;343863;28;1319;-84
2023/12/08 00:26:49;;;;;;;18.42;14.32;;;;;;;;;;342866;28;962;-85
2023/12/08 00:27:00;;;;;;;17.67;13.40;;;;;;;;;;341453;29;1197;-85
2023/12/08 00:27:10;;;;;;;17.25;12.85;;;;;;;;;;341270;28;890;-85
2023/12/08 00:27:21;;;;;;;16.73;12.80;;;;;;;;;;338303;29;1401;-85
2023/12/08 00:27:32;;;;;;;16.88;13.10;;;;;;;;;;338613;29;1409;-85
2023/12/08 00:27:46;;;;;;;16.42;13.25;;;;;;;;;;338511;29;1504;-85
2023/12/08 00:27:59;;;;;;;16.10;13.05;;;;;;;;;;338784;29;980;-85
2023/12/08 00:28:10;;;;;;;16.67;13.50;;;;;;;;;;339891;29;1302;-85
2023/12/08 00:28:21;;;;;;;16.65;13.25;;;;;;;;;;340984;29;1327;-85
2023/12/08 00:28:31;;;;;;;17.13;13.63;;;;;;;;;;340108;29;1426;-85
2023/12/08 00:28:44;;;;;;;17.73;13.48;;;;;;;;;;341434;29;836;-85
2023/12/08 00:28:55;;;;;;;18.17;13.63;;;;;;;;;;341393;29;1256;-85
2023/12/08 00:29:06;;;;;;;18.70;13.55;;;;;;;;;;341451;29;1010;-85
2023/12/08 00:29:20;;;;;;;17.80;13.15;;;;;;;;;;342302;28;1266;-85
2023/12/08 00:29:31;;;;;;;18.35;13.43;;;;;;;;;;341470;29;856;-85
2023/12/08 00:29:42;;;;;;;17.80;13.40;;;;;;;;;;341410;29;856;-85
2023/12/08 00:29:57;;;;;;;17.08;13.60;;;;;;;;;;342567;28;955;-84
2023/12/08 00:30:08;;;;;;;15.77;12.70;;;;;;;;;;342676;28;919;-84
2023/12/08 00:30:20;;;;;;;16.75;13.77;;;;;;;;;;342467;28;797;-85
2023/12/08 00:30:30;;;;;;;17.17;14.20;;;;;;;;;;345348;28;1243;-85
2023/12/08 00:30:41;;;;;;;16.88;14.23;;;;;;;;;;341189;28;1397;-85
2023/12/08 00:30:52;;;;;;;16.85;13.77;;;;;;;;;;341416;29;1534;-85
2023/12/08 00:31:04;;;;;;;16.83;14.10;;;;;;;;;;341525;29;836;-85
2023/12/08 00:31:14;;;;;;;16.17;13.38;;;;;;;;;;340972;29;867;-85
2023/12/08 00:31:25;;;;;;;16.33;13.50;;;;;;;;;;339850;29;1406;-85
2023/12/08 00:31:37;;;;;;;15.90;13.33;;;;;;;;;;341304;29;1482;-85
2023/12/08 00:31:48;;;;;;;16.88;13.90;;;;;;;;;;341420;29;903;-85
2023/12/08 00:31:59;;;;;;;17.35;13.90;;;;;;;;;;342733;28;1539;-85
2023/12/08 00:32:10;;;;;;;17.17;13.70;;;;;;;;;;342676;28;864;-85
2023/12/08 00:32:21;;;;;;;17.23;13.65;;;;;;;;;;341140;29;1421;-85
2023/12/08 00:32:32;;;;;;;17.40;13.60;;;;;;;;;;341445;29;896;-85
2023/12/08 00:32:42;;;;;;;17.53;13.73;;;;;;;;;;340008;29;1481;-85
2023/12/08 00:32:53;;;;;;;17.00;13.93;;;;;;;;;;337418;29;1476;-85
2023/12/08 00:33:04;;;;;;;17.00;14.50;;;;;;;;;;340100;29;1372;-85
2023/12/08 00:33:15;;;;;;;16.73;14.13;;;;;;;;;;339736;29;1568;-85
2023/12/08 00:33:26;;;;;;;17.10;13.65;;;;;;;;;;342613;28;1297;-85
2023/12/08 00:33:37;;;;;;;17.65;13.75;;;;;;;;;;341243;29;1331;-85
2023/12/08 00:33:51;;;;;;;17.60;13.97;;;;;;;;;;341383;29;1478;-85
2023/12/08 00:34:03;;;;;;;18.00;14.15;;;;;;;;;;341418;29;943;-85
2023/12/08 00:34:15;;;;;;;17.15;13.77;;;;;;;;;;341430;29;956;-85
2023/12/08 00:34:26;;;;;;;16.08;13.32;;;;;;;;;;340079;29;832;-85
2023/12/08 00:34:37;;;;;;;17.00;13.57;;;;;;;;;;337378;29;1364;-85
2023/12/08 00:34:48;;;;;;;18.08;14.15;;;;;;;;;;337465;29;971;-85
2023/12/08 00:34:59;;;;;;;19.27;14.57;;;;;;;;;;338644;29;1253;-85
2023/12/08 00:35:10;;;;;;;19.60;14.37;;;;;;;;;;340061;29;1400;-85
2023/12/08 00:35:22;;;;;;;19.27;13.82;;;;;;;;;;339737;29;1450;-85
2023/12/08 00:35:34;;;;;;;16.80;13.48;;;;;;;;;;341510;29;1367;-85
2023/12/08 00:35:44;;;;;;;16.80;13.77;;;;;;;;;;342363;28;1317;-85
2023/12/08 00:35:55;;;;;;;17.30;14.30;;;;;;;;;;340015;28;1240;-85
2023/12/08 00:36:18;;;;;;;18.13;14.30;;;;;;;;;;341409;29;1575;-85
2023/12/08 00:36:29;;;;;;;16.92;13.25;;;;;;;;;;340151;29;825;-85
2023/12/08 00:36:41;;;;;;;17.03;13.47;;;;;;;;;;339895;29;1368;-85
2023/12/08 00:36:52;;;;;;;17.88;13.75;;;;;;;;;;340153;29;837;-85
2023/12/08 00:37:04;;;;;;;18.05;13.55;;;;;;;;;;341543;29;856;-85
2023/12/08 00:37:15;;;;;;;17.73;13.30;;;;;;;;;;342415;28;1299;-85
2023/12/08 00:37:26;;;;;;;17.58;13.27;;;;;;;;;;341113;29;1442;-85
2023/12/08 00:37:36;;;;;;;16.17;13.35;;;;;;;;;;342692;28;1217;-84
2023/12/08 00:37:48;;;;;;;16.63;13.53;;;;;;;;;;342642;28;1246;-85
2023/12/08 00:37:59;;;;;;;16.17;13.20;;;;;;;;;;341416;28;1319;-85
2023/12/08 00:38:09;;;;;;;16.55;13.13;;;;;;;;;;345388;28;1316;-84
2023/12/08 00:38:21;;;;;;;16.27;13.03;;;;;;;;;;342343;28;1399;-85
2023/12/08 00:38:32;;;;;;;16.98;13.05;;;;;;;;;;342835;28;844;-85
2023/12/08 00:38:44;;;;;;;16.60;13.23;;;;;;;;;;341238;29;1326;-85
2023/12/08 00:38:55;;;;;;;16.40;13.55;;;;;;;;;;338867;29;880;-85
2023/12/08 00:39:07;;;;;;;16.85;13.60;;;;;;;;;;343995;28;1206;-85
2023/12/08 00:39:17;;;;;;;16.75;13.57;;;;;;;;;;342427;28;895;-85
2023/12/08 00:39:29;;;;;;;16.77;13.88;;;;;;;;;;342698;28;1347;-85
2023/12/08 00:39:42;;;;;;;16.42;14.02;;;;;;;;;;341320;28;1440;-85
2023/12/08 00:39:53;;;;;;;15.75;13.77;;;;;;;;;;341463;29;864;-85
2023/12/08 00:40:05;;;;;;;15.95;13.50;;;;;;;;;;342635;28;860;-85
2023/12/08 00:40:17;;;;;;;16.20;13.26;;;;;;;;;;342636;28;844;-85
2023/12/08 00:40:27;;;;;;;16.80;13.23;;;;;;;;;;340046;29;1413;-85
2023/12/08 00:40:41;;;;;;;17.17;13.23;;;;;;;;;;338831;29;821;-85
2023/12/08 00:40:52;;;;;;;16.90;13.43;;;;;;;;;;336125;29;964;-85
2023/12/08 00:41:03;;;;;;;17.13;13.48;;;;;;;;;;336290;29;1524;-85
2023/12/08 00:41:13;;;;;;;16.05;13.23;;;;;;;;;;341347;29;800;-85
2023/12/08 00:41:25;;;;;;;16.43;13.53;;;;;;;;;;341239;28;875;-85
2023/12/08 00:41:35;;;;;;;15.98;13.60;;;;;;;;;;341437;29;1078;-85
2023/12/08 00:41:46;;;;;;;16.23;13.33;;;;;;;;;;341399;29;1257;-85
2023/12/08 00:41:56;;;;;;;16.35;13.40;;;;;;;;;;342744;28;852;-85
2023/12/08 00:42:07;;;;;;;16.42;13.23;;;;;;;;;;344096;28;820;-85
2023/12/08 00:42:17;;;;;;;16.20;13.37;;;;;;;;;;342690;28;911;-85
2023/12/08 00:42:28;;;;;;;15.48;12.73;;;;;;;;;;342816;28;832;-85
2023/12/08 00:42:38;;;;;;;16.20;12.53;;;;;;;;;;341457;29;864;-85
2023/12/08 00:42:49;;;;;;;16.00;12.45;;;;;;;;;;344133;28;875;-85
2023/12/08 00:43:00;;;;;;;15.80;12.80;;;;;;;;;;344109;28;801;-85
2023/12/08 00:43:10;;;;;;;15.48;13.02;;;;;;;;;;344036;28;800;-85
2023/12/08 00:43:20;;;;;;;16.00;13.33;;;;;;;;;;341267;29;887;-85
2023/12/08 00:43:31;;;;;;;16.77;13.35;;;;;;;;;;341394;28;1308;-85
2023/12/08 00:43:41;;;;;;;16.20;13.07;;;;;;;;;;342777;28;792;-85
2023/12/08 00:43:52;;;;;;;16.08;13.02;;;;;;;;;;340039;29;1902;-85
2023/12/08 00:44:03;;;;;;;16.45;13.48;;;;;;;;;;341426;29;844;-85
2023/12/08 00:44:14;;;;;;;16.17;13.45;;;;;;;;;;342540;28;863;-85
2023/12/08 00:44:24;;;;;;;15.97;13.20;;;;;;;;;;342520;28;1300;-85
2023/12/08 00:44:35;;;;;;;15.30;13.18;;;;;;;;;;338758;29;1165;-85
2023/12/08 00:44:46;;;;;;;16.20;13.43;;;;;;;;;;342295;28;986;-85
2023/12/08 00:44:57;;;;;;;17.42;13.60;;;;;;;;;;342758;28;848;-85
2023/12/08 00:45:08;;;;;;;18.10;13.15;;;;;;;;;;340035;29;1406;-85
2023/12/08 00:45:19;;;;;;;18.13;13.15;;;;;;;;;;342591;28;1440;-85
2023/12/08 00:45:30;;;;;;;17.02;13.15;;;;;;;;;;341298;29;1359;-85
2023/12/08 00:45:40;;;;;;;17.73;13.57;;;;;;;;;;341442;29;856;-85
2023/12/08 00:45:51;;;;;;;17.00;13.83;;;;;;;;;;344014;28;1210;-85
2023/12/08 00:46:03;;;;;;;17.92;14.02;;;;;;;;;;344059;28;843;-85
2023/12/08 00:46:17;;;;;;;16.83;13.13;;;;;;;;;;345163;28;1258;-85
2023/12/08 00:46:29;;;;;;;15.65;12.65;;;;;;;;;;342454;28;1251;-85
2023/12/08 00:46:40;;;;;;;15.95;12.93;;;;;;;;;;340016;29;1267;-85
2023/12/08 00:46:51;;;;;;;15.07;12.73;;;;;;;;;;340048;29;1372;-85
2023/12/08 00:47:04;;;;;;;15.65;13.18;;;;;;;;;;341205;29;1430;-85
2023/12/08 00:47:16;;;;;;;16.14;13.80;;;;;;;;;;339882;29;1418;-85
2023/12/08 00:47:27;;;;;;;17.23;13.82;;;;;;;;;;339918;29;892;-84
2023/12/08 00:47:38;;;;;;;16.80;13.63;;;;;;;;;;339889;29;1423;-85
2023/12/08 00:47:48;;;;;;;16.58;13.07;;;;;;;;;;340127;29;818;-85
2023/12/08 00:47:59;;;;;;;16.47;12.93;;;;;;;;;;339915;29;1233;-85
2023/12/08 00:48:10;;;;;;;17.58;13.23;;;;;;;;;;342417;28;1272;-85
2023/12/08 00:48:21;;;;;;;16.92;13.38;;;;;;;;;;339823;29;1413;-85
2023/12/08 00:48:32;;;;;;;15.27;13.40;;;;;;;;;;342707;28;943;-85
2023/12/08 00:48:44;;;;;;;16.13;13.40;;;;;;;;;;342644;28;883;-85
2023/12/08 00:48:55;;;;;;;16.96;12.96;;;;;;;;;;342695;28;1286;-85
2023/12/08 00:49:05;;;;;;;17.50;13.00;;;;;;;;;;342792;28;907;-85
2023/12/08 00:49:16;;;;;;;16.43;12.87;;;;;;;;;;342618;28;1472;-85
2023/12/08 00:49:26;;;;;;;15.32;12.90;;;;;;;;;;342543;28;1366;-85
2023/12/08 00:49:38;;;;;;;17.23;12.83;;;;;;;;;;342660;28;845;-84
2023/12/08 00:49:49;;;;;;;17.17;12.95;;;;;;;;;;341452;28;1282;-85
2023/12/08 00:49:59;;;;;;;17.80;14.02;;;;;;;;;;339918;29;1255;-84
2023/12/08 00:50:10;;;;;;;16.70;14.57;;;;;;;;;;341140;29;1201;-85
2023/12/08 00:50:24;;;;;;;17.70;14.63;;;;;;;;;;340089;29;1574;-85
2023/12/08 00:50:35;;;;;;;18.20;14.50;;;;;;;;;;340047;29;1437;-85
2023/12/08 00:50:46;;;;;;;18.25;14.43;;;;;;;;;;341341;29;1127;-85
2023/12/08 00:50:58;;;;;;;17.37;14.13;;;;;;;;;;341439;29;1358;-85
2023/12/08 00:51:11;;;;;;;16.40;14.05;;;;;;;;;;341394;29;852;-85
2023/12/08 00:51:22;;;;;;;16.85;13.93;;;;;;;;;;342350;28;1419;-85
2023/12/08 00:51:33;;;;;;;17.02;13.60;;;;;;;;;;344000;28;1242;-85
2023/12/08 00:51:44;;;;;;;17.33;13.55;;;;;;;;;;342646;28;1441;-85
2023/12/08 00:51:55;;;;;;;16.90;13.45;;;;;;;;;;342691;28;1323;-85
2023/12/08 00:52:25;;;;;;;16.92;13.55;;;;;;;;;;343637;28;1288;-84
2023/12/08 00:52:36;;;;;;;16.23;13.27;;;;;;;;;;342750;28;1552;-85
2023/12/08 00:52:46;;;;;;;17.80;13.13;;;;;;;;;;341348;28;1250;-85
2023/12/08 00:52:57;;;;;;;19.13;13.50;;;;;;;;;;340207;29;853;-85
2023/12/08 00:53:11;;;;;;;18.93;13.27;;;;;;;;;;341066;29;1362;-84
2023/12/08 00:53:21;;;;;;;16.85;12.98;;;;;;;;;;341479;29;924;-85
2023/12/08 00:53:32;;;;;;;15.93;12.93;;;;;;;;;;339889;29;1583;-85
2023/12/08 00:53:42;;;;;;;16.40;13.00;;;;;;;;;;340028;29;1445;-85
2023/12/08 00:53:56;;;;;;;16.20;13.18;;;;;;;;;;340083;29;904;-85
2023/12/08 00:54:10;;;;;;;18.00;13.30;;;;;;;;;;341095;29;1377;-84
2023/12/08 00:54:22;;;;;;;17.27;13.25;;;;;;;;;;341436;29;959;-85
2023/12/08 00:54:33;;;;;;;15.80;13.10;;;;;;;;;;341244;29;852;-85
2023/12/08 00:54:44;;;;;;;16.48;13.32;;;;;;;;;;341415;29;916;-85
2023/12/08 00:55:01;;;;;;;16.80;13.40;;;;;;;;;;342764;28;1466;-85
2023/12/08 00:55:12;;;;;;;15.43;13.07;;;;;;;;;;343834;28;1535;-85
2023/12/08 00:55:24;;;;;;;15.43;12.88;;;;;;;;;;345367;28;872;-86
2023/12/08 00:55:36;;;;;;;15.85;12.88;;;;;;;;;;345576;28;910;-85
2023/12/08 00:55:46;;;;;;;16.02;12.70;;;;;;;;;;345508;28;844;-85
2023/12/08 00:55:57;;;;;;;16.13;13.03;;;;;;;;;;343965;28;1274;-85
2023/12/08 00:56:09;;;;;;;16.83;13.25;;;;;;;;;;341057;28;1002;-85
2023/12/08 00:56:20;;;;;;;17.73;12.98;;;;;;;;;;342620;28;1469;-85
2023/12/08 00:56:31;;;;;;;17.30;12.80;;;;;;;;;;339909;29;1364;-85
2023/12/08 00:56:43;;;;;;;16.25;12.45;;;;;;;;;;341184;29;1366;-85
2023/12/08 00:56:54;;;;;;;17.00;12.90;;;;;;;;;;341327;29;1386;-85
2023/12/08 00:57:05;;;;;;;16.80;13.10;;;;;;;;;;341412;29;835;-85
2023/12/08 00:57:16;;;;;;;16.13;13.45;;;;;;;;;;341162;29;1283;-85
2023/12/08 00:57:27;;;;;;;16.37;13.43;;;;;;;;;;339883;29;1362;-85
2023/12/08 00:57:39;;;;;;;18.27;14.25;;;;;;;;;;340121;29;920;-84
2023/12/08 00:57:52;;;;;;;18.67;14.60;;;;;;;;;;341234;29;1398;-85
2023/12/08 00:58:03;;;;;;;17.08;14.10;;;;;;;;;;341378;28;947;-85
2023/12/08 00:58:17;;;;;;;16.47;13.77;;;;;;;;;;342635;28;1197;-85
2023/12/08 00:58:27;;;;;;;15.95;12.85;;;;;;;;;;342532;28;836;-85
2023/12/08 00:58:38;;;;;;;15.53;12.67;;;;;;;;;;340045;29;1516;-84
2023/12/08 00:58:48;;;;;;;15.38;12.85;;;;;;;;;;340212;29;875;-85
2023/12/08 00:58:59;;;;;;;15.60;12.90;;;;;;;;;;338835;29;1514;-85
2023/12/08 00:59:09;;;;;;;16.42;13.40;;;;;;;;;;339857;29;1230;-85
2023/12/08 00:59:20;;;;;;;15.80;13.23;;;;;;;;;;340091;29;825;-84
2023/12/08 00:59:30;;;;;;;15.25;13.32;;;;;;;;;;340949;29;836;-84
2023/12/08 00:59:41;;;;;;;14.97;13.07;;;;;;;;;;342592;28;855;-85
2023/12/08 00:59:51;;;;;;;14.77;12.73;;;;;;;;;;344173;28;883;-85
2023/12/08 01:00:04;;;;;;;15.63;12.97;;;;;;;;;;344173;28;879;-85
2023/12/08 01:00:14;;;;;;;16.45;12.55;;;;;;;;;;343988;28;919;-85
2023/12/08 01:00:25;;;;;;;16.23;12.93;;;;;;;;;;338804;29;1353;-85
2023/12/08 01:00:36;;;;;;;16.13;13.63;;;;;;;;;;341442;29;1428;-85
2023/12/08 01:00:47;;;;;;;15.43;13.55;;;;;;;;;;340124;29;1433;-85
2023/12/08 01:00:57;;;;;;;16.38;13.13;;;;;;;;;;341437;28;880;-85
2023/12/08 01:01:09;;;;;;;17.97;13.90;;;;;;;;;;341305;29;770;-85
2023/12/08 01:01:20;;;;;;;17.13;14.18;;;;;;;;;;338715;29;1406;-85
2023/12/08 01:01:30;;;;;;;14.93;12.90;;;;;;;;;;337143;29;1220;-85
2023/12/08 01:01:41;;;;;;;15.57;12.48;;;;;;;;;;340127;29;816;-85
2023/12/08 01:01:51;;;;;;;15.97;12.70;;;;;;;;;;340008;29;1291;-85
2023/12/08 01:02:02;;;;;;;16.90;13.18;;;;;;;;;;340100;29;848;-85
2023/12/08 01:02:13;;;;;;;16.45;13.45;;;;;;;;;;342575;28;1437;-85
2023/12/08 01:02:27;;;;;;;16.20;13.30;;;;;;;;;;338548;29;1243;-84
2023/12/08 01:02:38;;;;;;;15.68;13.23;;;;;;;;;;339128;29;932;-84
2023/12/08 01:02:49;;;;;;;17.13;13.13;;;;;;;;;;338768;29;1599;-85
2023/12/08 01:03:01;;;;;;;17.67;13.48;;;;;;;;;;342613;28;929;-85
2023/12/08 01:03:12;;;;;;;17.33;13.57;;;;;;;;;;342568;28;961;-85
2023/12/08 01:03:23;;;;;;;16.27;14.02;;;;;;;;;;342772;28;792;-85
2023/12/08 01:03:33;;;;;;;15.70;13.60;;;;;;;;;;341110;29;1005;-84
2023/12/08 01:03:45;;;;;;;15.33;13.20;;;;;;;;;;341456;29;879;-85
2023/12/08 01:03:56;;;;;;;16.48;12.80;;;;;;;;;;338479;29;1974;-85
2023/12/08 01:04:07;;;;;;;17.35;13.20;;;;;;;;;;341123;28;1306;-85
2023/12/08 01:04:20;;;;;;;16.33;13.27;;;;;;;;;;342648;28;1392;-85
2023/12/08 01:04:34;;;;;;;15.45;13.18;;;;;;;;;;343838;28;1490;-85
2023/12/08 01:04:44;;;;;;;15.60;13.02;;;;;;;;;;342618;28;1294;-85
2023/12/08 01:04:55;;;;;;;17.65;13.15;;;;;;;;;;340032;29;968;-85
2023/12/08 01:05:08;;;;;;;18.35;13.38;;;;;;;;;;341101;28;1173;-85
2023/12/08 01:05:20;;;;;;;16.26;13.12;;;;;;;;;;341348;29;1568;-85
2023/12/08 01:05:31;;;;;;;15.63;13.10;;;;;;;;;;341229;29;867;-85
2023/12/08 01:05:42;;;;;;;16.00;13.02;;;;;;;;;;342654;28;1433;-85
2023/12/08 01:05:52;;;;;;;15.65;13.00;;;;;;;;;;341458;29;1398;-85
2023/12/08 01:06:04;;;;;;;17.33;13.27;;;;;;;;;;342600;28;1236;-85
2023/12/08 01:06:18;;;;;;;16.73;13.15;;;;;;;;;;340976;29;1379;-85
2023/12/08 01:06:29;;;;;;;16.33;13.30;;;;;;;;;;339791;29;1307;-85
2023/12/08 01:06:43;;;;;;;15.10;12.50;;;;;;;;;;339953;29;1281;-84
2023/12/08 01:06:54;;;;;;;14.75;12.30;;;;;;;;;;339731;29;1526;-84
2023/12/08 01:07:08;;;;;;;14.80;12.50;;;;;;;;;;341084;29;1250;-84
2023/12/08 01:07:19;;;;;;;16.27;13.13;;;;;;;;;;341308;29;1118;-85
2023/12/08 01:07:29;;;;;;;17.70;13.50;;;;;;;;;;341410;28;1532;-85
2023/12/08 01:07:40;;;;;;;17.33;13.37;;;;;;;;;;342683;28;1503;-85
2023/12/08 01:07:50;;;;;;;16.85;13.15;;;;;;;;;;341422;28;587;-84
2023/12/08 01:08:01;;;;;;;15.27;12.77;;;;;;;;;;340167;29;820;-85
2023/12/08 01:08:11;;;;;;;15.20;12.70;;;;;;;;;;343945;28;1200;-85
2023/12/08 01:08:22;;;;;;;14.70;12.50;;;;;;;;;;339993;28;1465;-85